LLIB/RPN METAR and TAF weather

Enter ICAO airport designator
Station Type Date Time Source
LLIB METAR 2022/09/29 14:50 UTC NOAA

LLIB 291450Z AUTO 33016G28KT CAVOK 30/14 Q1012


Station Type Date Time Source
LLIB Decoded METAR 2022/09/29 14:50 UTC NOAA

Galilee / Pina, Israel (LLIB) 32-58-48N 035-34-12E
Sep 29, 2022 - 10:50 AM EDT / 2022.09.29 1450 UTC
Wind: from the NNW (330 degrees) at 18 MPH (16 KT) gusting to 32 MPH (28 KT):0
Visibility: greater than 7 mile(s):0
Temperature: 86 F (30 C)
Dew Point: 57 F (14 C)
Relative Humidity: 37%
Pressure (altimeter): 29.88 in. Hg (1012 hPa)
ob: LLIB 291450Z AUTO 33016G28KT CAVOK 30/14 Q1012
cycle: 15

Station Type Date Time Source
LLIB TAF 2022/09/29 12:24 UTC NOAA

TAF TAF LLIB 291102Z 2912/3012 34018KT CAVOK
BECMG 2916/2918 VRB04KT
BECMG 3006/3008 30008KT TX33/2912Z TN18/3004Z

Example: see airport list